KMOD

Modesto City-Co-Harry Sham Field Airport

Modesto, California, USA
METAR KMOD 160053Z COR 00000KT 7SM BKN100 14/08 A3006 RMK AO2 SLP179 T01440083 $
Observed Flight Rules
Dec-16 @ 00:53 UTC (22 minutes ago) Visual Flight Rules
Visibility Clouds
7 miles
  • Broken at 10,000' AGL
Temperatures Readings
Current 14°C / 57°F
Dewpoint 8°C / 46°F
Humidity 67%
Altimeter 30.06" Hg
Pressure 1017.9 hPa
Elevation 29
METAR KMOD 160053Z COR 00000KT 7SM BKN100 14/08 A3006 RMK AO2 SLP179 T01440083 $
Observed Flight Rules
Dec-16 @ 00:53 UTC
(22 minutes ago)
VFR
Clouds
  • Broken at 10,000' AGL
Temperature Dewpoint
14°C / 57°F 8°C / 46°F
Humidity Altimeter Pressure
67% 30.06" Hg 1017.9 hPa